Time;durP1;ratioP1;P1;durP2;ratioP2;P2;SDS_P1;SDS_P2;PMS_P1;PMS_P2;Temp;Humidity;BMP_temperature;BMP_pressure;BME280_temperature;BME280_humidity;BME280_pressure;Samples;Min_cycle;Max_cycle;Signal;HPM_P1;HPM_P2
2022/10/02 00:02:11;;;;;;;8.23;1.67;;;;;;;15.47;70.12;99368.97;5123191;28;20042;-68
2022/10/02 00:05:04;;;;;;;7.72;1.73;;;;;;;15.60;69.70;99371.16;5145573;28;20073;-69
2022/10/02 00:08:03;;;;;;;12.07;1.70;;;;;;;15.58;70.16;99369.63;5135360;28;20421;-68
2022/10/02 00:11:00;;;;;;;10.15;1.88;;;;;;;15.55;69.37;99399.34;5149168;28;20460;-69
2022/10/02 00:13:55;;;;;;;8.77;1.70;;;;;;;15.58;69.82;99393.69;5140789;28;20061;-69
2022/10/02 00:16:55;;;;;;;6.60;1.75;;;;;;;15.57;70.05;99392.03;5135759;28;20125;-69
2022/10/02 00:19:46;;;;;;;10.23;1.90;;;;;;;15.56;70.26;99393.00;5140484;28;20519;-69
2022/10/02 00:22:57;;;;;;;7.28;1.80;;;;;;;15.56;70.76;99387.66;5127239;28;20133;-68
2022/10/02 00:26:17;;;;;;;8.23;1.30;;;;;;;15.40;70.86;99389.34;5142447;28;20050;-68
2022/10/02 00:29:23;;;;;;;7.20;1.70;;;;;;;15.45;70.88;99383.47;5124184;28;20039;-68
2022/10/02 00:32:52;;;;;;;5.13;1.33;;;;;;;15.38;70.99;99387.81;5147767;28;20073;-69
2022/10/02 00:36:00;;;;;;;12.63;1.90;;;;;;;15.41;70.86;99392.84;5141396;28;20162;-69
2022/10/02 00:39:04;;;;;;;10.27;2.13;;;;;;;15.35;71.26;99393.50;5132435;28;20054;-69
2022/10/02 00:42:16;;;;;;;7.95;2.53;;;;;;;15.37;71.23;99386.16;5144183;28;20500;-69
2022/10/02 00:45:27;;;;;;;8.40;1.40;;;;;;;15.29;71.17;99394.97;5132667;28;20563;-69
2022/10/02 00:48:39;;;;;;;12.90;1.88;;;;;;;15.28;71.49;99386.13;5135375;28;20054;-68
2022/10/02 00:51:41;;;;;;;9.20;1.67;;;;;;;15.30;71.08;99401.16;5122920;28;20101;-68
2022/10/02 00:55:02;;;;;;;6.75;1.67;;;;;;;15.34;71.02;99403.34;5138906;28;20058;-69
2022/10/02 00:58:14;;;;;;;5.20;1.60;;;;;;;15.32;71.10;99401.84;5151392;28;20137;-69
2022/10/02 01:01:11;;;;;;;5.68;1.38;;;;;;;15.27;70.93;99410.34;5136935;28;20120;-68
2022/10/02 01:04:07;;;;;;;8.40;1.65;;;;;;;15.19;71.26;99410.31;5140149;28;20424;-69
2022/10/02 01:06:58;;;;;;;7.78;1.73;;;;;;;15.09;71.66;99413.13;5121380;28;20125;-69
2022/10/02 01:09:48;;;;;;;12.35;2.88;;;;;;;15.11;71.76;99411.13;5150205;28;20061;-69
2022/10/02 01:12:41;;;;;;;13.07;1.95;;;;;;;15.13;71.51;99406.47;5150720;28;20057;-69
2022/10/02 01:15:36;;;;;;;12.05;2.00;;;;;;;15.18;71.93;99404.16;5135506;28;20098;-68
2022/10/02 01:18:28;;;;;;;11.25;1.48;;;;;;;14.86;71.36;99355.97;5126585;28;20054;-69
2022/10/02 01:21:21;;;;;;;8.57;1.63;;;;;;;15.14;72.01;99404.66;5137803;28;20170;-68
2022/10/02 01:24:18;;;;;;;6.95;1.83;;;;;;;15.10;71.81;99400.59;5129950;28;20081;-68
2022/10/02 01:27:07;;;;;;;11.73;2.10;;;;;;;15.11;71.81;99388.94;5145553;28;20551;-69
2022/10/02 01:30:06;;;;;;;6.82;1.60;;;;;;;15.01;72.05;99410.44;5132317;28;20053;-68
2022/10/02 01:32:59;;;;;;;9.93;1.63;;;;;;;15.05;71.66;99409.13;5139528;28;20059;-69
2022/10/02 01:35:49;;;;;;;8.07;1.23;;;;;;;15.00;71.07;99406.94;5132538;28;20058;-68
2022/10/02 01:38:40;;;;;;;8.38;1.50;;;;;;;15.01;71.62;99403.25;5140632;28;20096;-69
2022/10/02 01:41:39;;;;;;;10.60;2.05;;;;;;;15.11;72.07;99418.31;5143629;28;20050;-69
2022/10/02 01:44:30;;;;;;;12.85;2.00;;;;;;;15.16;71.34;99406.13;5129733;28;20193;-69
2022/10/02 01:47:34;;;;;;;10.48;1.73;;;;;;;15.17;70.78;99417.69;5144135;28;20057;-69
2022/10/02 01:50:54;;;;;;;4.40;1.30;;;;;;;15.06;71.57;99420.63;5120255;28;20054;-68
2022/10/02 01:53:51;;;;;;;7.93;1.70;;;;;;;15.05;72.05;99435.81;5134128;28;20086;-68
2022/10/02 01:57:08;;;;;;;9.52;2.10;;;;;;;15.21;71.85;99419.00;5143676;28;20062;-69
2022/10/02 02:00:07;;;;;;;8.45;1.60;;;;;;;15.15;71.63;99423.16;5133975;28;20065;-68
2022/10/02 02:03:06;;;;;;;9.93;1.95;;;;;;;15.06;71.63;99423.31;5147399;28;20516;-70
2022/10/02 02:06:26;;;;;;;10.20;1.83;;;;;;;15.08;71.91;99432.00;5131930;28;20149;-68
2022/10/02 02:09:23;;;;;;;17.27;1.70;;;;;;;15.02;72.18;99410.25;5133617;28;20046;-69
2022/10/02 02:12:27;;;;;;;11.70;1.90;;;;;;;15.16;71.75;99421.31;5143053;28;20205;-69
2022/10/02 02:15:59;;;;;;;8.02;1.92;;;;;;;15.14;71.86;99423.34;5138657;28;20193;-68
2022/10/02 02:18:58;;;;;;;10.60;1.70;;;;;;;15.18;71.65;99427.34;5112383;28;20054;-70
2022/10/02 02:21:54;;;;;;;3.35;1.27;;;;;;;15.08;71.84;99418.66;5136267;28;20062;-69
2022/10/02 02:24:51;;;;;;;9.98;1.92;;;;;;;15.15;71.71;99415.16;5141083;28;20133;-69
2022/10/02 02:27:48;;;;;;;7.25;1.65;;;;;;;15.22;71.88;99431.38;5133661;28;20556;-68
2022/10/02 02:30:42;;;;;;;6.68;1.60;;;;;;;15.23;71.67;99422.34;5152247;28;20109;-68
2022/10/02 02:33:44;;;;;;;12.52;1.63;;;;;;;15.23;71.57;99428.53;5148172;28;20125;-69
2022/10/02 02:36:41;;;;;;;8.32;1.60;;;;;;;15.17;71.58;99415.84;5140932;28;20062;-68
2022/10/02 02:40:00;;;;;;;6.82;1.33;;;;;;;15.33;71.34;99419.53;5126541;28;20073;-69
2022/10/02 02:42:57;;;;;;;9.38;1.55;;;;;;;15.35;71.42;99414.88;5122130;28;20137;-69
2022/10/02 02:45:54;;;;;;;7.47;1.60;;;;;;;15.33;71.56;99422.19;5137408;28;20125;-69
2022/10/02 02:48:53;;;;;;;8.70;1.23;;;;;;;15.40;71.03;99420.56;5138014;28;20505;-69
2022/10/02 02:51:45;;;;;;;7.32;1.55;;;;;;;15.34;71.23;99416.72;5135049;28;20070;-69
2022/10/02 02:54:53;;;;;;;10.48;2.25;;;;;;;15.28;71.34;99415.50;5144354;28;20053;-69
2022/10/02 02:58:05;;;;;;;7.63;1.67;;;;;;;15.27;71.81;99424.53;5148189;28;20527;-69
2022/10/02 03:00:55;;;;;;;4.20;1.60;;;;;;;15.29;71.18;99427.03;5135975;28;20105;-68
2022/10/02 03:03:46;;;;;;;5.90;1.40;;;;;;;15.36;71.51;99421.88;5156111;28;20189;-69
2022/10/02 03:06:48;;;;;;;11.15;1.95;;;;;;;15.35;71.49;99428.22;5143277;28;20524;-69
2022/10/02 03:09:39;;;;;;;11.70;1.92;;;;;;;15.32;71.58;99434.72;5177861;22;20038;-71
2022/10/02 03:12:57;;;;;;;7.75;1.60;;;;;;;15.20;71.53;99433.38;5198460;28;20049;-70
2022/10/02 03:15:51;;;;;;;7.60;1.60;;;;;;;15.31;71.95;99434.91;5176114;28;20049;-71
2022/10/02 03:18:51;;;;;;;8.80;1.80;;;;;;;15.31;71.92;99435.72;5182920;28;20100;-71
2022/10/02 03:21:53;;;;;;;6.13;1.40;;;;;;;15.26;71.67;99436.25;5181893;28;20057;-72
2022/10/02 03:24:58;;;;;;;7.15;1.50;;;;;;;15.39;71.28;99419.69;5183156;28;20107;-68
2022/10/02 03:28:06;;;;;;;6.78;1.58;;;;;;;15.42;71.16;99418.53;5183774;28;20515;-68
2022/10/02 03:30:57;;;;;;;9.27;1.83;;;;;;;15.35;71.41;99421.03;5177088;28;20057;-71
2022/10/02 03:33:50;;;;;;;8.23;1.88;;;;;;;15.35;71.59;99420.22;5183976;28;20100;-71
2022/10/02 03:36:41;;;;;;;8.73;1.75;;;;;;;15.28;71.25;99422.69;5186748;28;20057;-68
2022/10/02 03:39:31;;;;;;;7.80;1.60;;;;;;;15.23;71.58;99423.19;5188127;28;20558;-70
2022/10/02 03:42:25;;;;;;;9.43;1.95;;;;;;;15.25;71.99;99415.00;5181066;28;20042;-69
2022/10/02 03:45:15;;;;;;;11.73;1.95;;;;;;;15.38;71.85;99419.88;5174058;28;20105;-71
2022/10/02 03:48:25;;;;;;;13.60;1.88;;;;;;;15.24;72.45;99414.19;5182806;28;20049;-69
2022/10/02 03:51:15;;;;;;;5.88;1.60;;;;;;;15.21;72.20;99424.34;5175750;28;20046;-73
2022/10/02 03:54:14;;;;;;;5.53;1.58;;;;;;;15.21;71.91;99432.38;5172470;28;20050;-73
2022/10/02 03:57:07;;;;;;;4.88;1.80;;;;;;;15.20;72.52;99438.72;5160070;28;20052;-69
2022/10/02 04:00:06;;;;;;;7.38;1.90;;;;;;;15.20;72.37;99441.41;5183588;28;20053;-68
2022/10/02 04:03:21;;;;;;;15.65;2.40;;;;;;;15.21;72.19;99435.88;5178087;28;20132;-69
2022/10/02 04:06:18;;;;;;;15.18;2.65;;;;;;;15.30;72.04;99434.06;5176709;28;20057;-71
2022/10/02 04:09:11;;;;;;;8.75;2.38;;;;;;;15.17;72.24;99428.34;5169943;28;20121;-70
2022/10/02 04:12:12;;;;;;;4.70;1.50;;;;;;;15.23;72.51;99431.22;5174132;28;20057;-72
2022/10/02 04:15:09;;;;;;;7.30;1.98;;;;;;;15.21;72.80;99449.22;5169493;28;20108;-76
2022/10/02 04:18:36;;;;;;;13.23;2.72;;;;;;;15.31;72.45;99424.22;5159723;28;20046;-69
2022/10/02 04:21:33;;;;;;;7.93;2.00;;;;;;;15.31;72.04;99434.91;5168230;28;20061;-69
2022/10/02 04:24:38;;;;;;;8.20;2.20;;;;;;;15.29;72.12;99427.03;5181717;28;20107;-68
2022/10/02 04:27:41;;;;;;;8.32;2.20;;;;;;;15.33;72.03;99433.75;5173047;28;20053;-69
2022/10/02 04:30:31;;;;;;;8.60;2.13;;;;;;;15.22;72.41;99431.38;5159772;28;20045;-74
2022/10/02 04:33:23;;;;;;;11.40;2.38;;;;;;;15.10;72.75;99432.66;5175289;28;20193;-74
2022/10/02 04:36:31;;;;;;;5.82;1.70;;;;;;;15.16;72.49;99440.03;5152055;28;20049;-70
2022/10/02 04:39:34;;;;;;;10.68;1.88;;;;;;;15.24;71.94;99445.41;5171404;28;20050;-68
2022/10/02 04:42:42;;;;;;;12.63;3.45;;;;;;;15.24;71.88;99435.56;5173168;28;20176;-68
2022/10/02 04:45:45;;;;;;;9.68;1.98;;;;;;;15.14;72.81;99436.69;5180792;28;20111;-70
2022/10/02 04:49:05;;;;;;;11.75;2.10;;;;;;;15.14;73.07;99440.19;5183660;28;20416;-73
2022/10/02 04:52:05;;;;;;;19.55;2.40;;;;;;;14.43;73.52;99425.31;5173497;28;20137;-71
2022/10/02 04:55:13;;;;;;;16.60;1.95;;;;;;;14.87;72.70;99441.28;5172160;28;20530;-68
2022/10/02 04:58:15;;;;;;;9.57;2.03;;;;;;;14.62;72.11;99410.94;5173152;28;20072;-68
2022/10/02 05:01:24;;;;;;;13.77;1.95;;;;;;;14.97;72.55;99450.00;5175749;28;20053;-70
2022/10/02 05:04:43;;;;;;;10.05;1.80;;;;;;;15.04;72.57;99456.34;5177551;28;20045;-71
2022/10/02 05:07:57;;;;;;;6.43;1.52;;;;;;;14.78;72.53;99447.56;5182284;28;20135;-70
2022/10/02 05:11:15;;;;;;;9.30;1.88;;;;;;;15.00;72.61;99440.81;5175139;28;20081;-70
2022/10/02 05:14:26;;;;;;;8.70;1.70;;;;;;;15.07;72.18;99447.19;5169777;28;20516;-70
2022/10/02 05:17:29;;;;;;;11.50;1.55;;;;;;;14.94;73.56;99449.47;5180358;28;20526;-70
2022/10/02 05:21:03;;;;;;;17.00;2.00;;;;;;;15.19;72.62;99437.03;5177084;28;20128;-70
2022/10/02 05:24:11;;;;;;;7.85;2.10;;;;;;;15.07;72.82;99443.69;5175076;28;20050;-70
2022/10/02 05:27:46;;;;;;;10.27;2.17;;;;;;;15.18;72.39;99443.38;5160970;28;20050;-70
2022/10/02 05:30:53;;;;;;;13.05;2.28;;;;;;;15.12;72.87;99446.69;5170844;28;20048;-69
2022/10/02 05:34:02;;;;;;;13.85;1.90;;;;;;;15.15;73.25;99447.19;5174541;28;20551;-69
2022/10/02 05:37:17;;;;;;;11.27;1.52;;;;;;;15.17;72.50;99453.22;5171336;28;20062;-68
2022/10/02 05:40:13;;;;;;;;;;;;;;;15.14;72.85;99450.06;5168247;28;20144;-69
2022/10/02 05:43:41;;;;;;;9.80;2.20;;;;;;;15.20;72.78;99438.72;5174797;28;19932;-68
2022/10/02 05:46:40;;;;;;;16.23;2.00;;;;;;;14.92;73.96;99436.28;5169565;28;20050;-70
2022/10/02 05:49:48;;;;;;;8.98;1.98;;;;;;;15.18;72.28;99443.38;5172866;28;20075;-68
2022/10/02 05:53:08;;;;;;;9.32;1.85;;;;;;;15.25;72.67;99442.56;5179333;28;20520;-70
2022/10/02 05:56:05;;;;;;;15.32;1.90;;;;;;;15.19;72.41;99458.41;5161755;28;20049;-69
2022/10/02 05:59:20;;;;;;;13.13;2.22;;;;;;;15.15;72.46;99457.88;5173055;28;20440;-70
2022/10/02 06:02:23;;;;;;;11.77;1.98;;;;;;;15.14;73.20;99466.06;5172949;28;20058;-71
2022/10/02 06:05:20;;;;;;;22.88;2.55;;;;;;;15.18;72.77;99468.25;5180449;28;20057;-70
2022/10/02 06:08:14;;;;;;;15.55;2.03;;;;;;;15.27;72.83;99466.44;5181825;28;20108;-70
2022/10/02 06:11:13;;;;;;;12.32;2.00;;;;;;;15.24;73.17;99472.13;5177319;28;20085;-68
2022/10/02 06:14:20;;;;;;;10.27;1.70;;;;;;;15.21;72.73;99456.41;5171274;28;20607;-70
2022/10/02 06:17:33;;;;;;;20.40;5.30;;;;;;;15.48;72.19;99453.47;5167791;28;20053;-70
2022/10/02 06:20:26;;;;;;;11.43;3.63;;;;;;;15.35;72.77;99455.78;5161465;28;20054;-70
2022/10/02 06:23:26;;;;;;;18.13;3.40;;;;;;;15.31;72.67;99443.75;5171843;28;20505;-70
2022/10/02 06:26:50;;;;;;;39.92;19.63;;;;;;;15.39;72.69;99456.28;5179109;28;20557;-70
2022/10/02 06:29:49;;;;;;;9.93;2.95;;;;;;;15.43;73.04;99455.81;5167830;28;20046;-70
2022/10/02 06:33:02;;;;;;;11.27;2.42;;;;;;;15.38;72.70;99436.75;5175346;28;20057;-70
2022/10/02 06:36:04;;;;;;;13.38;2.95;;;;;;;15.38;73.05;99444.75;5179489;28;20065;-68
2022/10/02 06:39:09;;;;;;;17.10;6.43;;;;;;;15.35;72.71;99445.09;5166616;28;20045;-70
2022/10/02 06:42:38;;;;;;;15.15;3.70;;;;;;;15.39;72.25;99435.75;5175501;28;20061;-69
2022/10/02 06:45:39;;;;;;;11.15;2.42;;;;;;;15.40;72.77;99453.47;5173675;28;20435;-69
2022/10/02 06:48:56;;;;;;;11.15;2.30;;;;;;;15.45;72.36;99453.78;5171232;28;20060;-70
2022/10/02 06:52:07;;;;;;;14.15;2.38;;;;;;;15.33;72.98;99460.47;5173838;28;20065;-69
2022/10/02 06:55:12;;;;;;;9.48;2.35;;;;;;;15.36;73.19;99452.09;5172013;28;20104;-69
2022/10/02 06:58:16;;;;;;;9.57;2.72;;;;;;;15.28;73.57;99438.72;5175128;28;20096;-70
2022/10/02 07:01:27;;;;;;;13.93;2.80;;;;;;;15.25;73.81;99434.53;5173614;28;20042;-71
2022/10/02 07:04:17;;;;;;;16.08;4.70;;;;;;;15.51;72.59;99439.78;5173139;28;20078;-68
2022/10/02 07:07:21;;;;;;;9.85;4.10;;;;;;;15.35;72.35;99415.69;5169007;28;20184;-68
2022/10/02 07:10:16;;;;;;;;;;;;;;;15.41;73.46;99424.91;5176797;28;20069;-69
2022/10/02 07:13:11;;;;;;;11.13;3.38;;;;;;;15.51;73.05;99420.25;5172876;28;19928;-69
2022/10/02 07:16:39;;;;;;;9.98;2.97;;;;;;;15.52;72.79;99414.72;5156027;28;20428;-69
2022/10/02 07:20:09;;;;;;;12.73;3.03;;;;;;;15.52;72.89;99411.22;5156225;28;20488;-71
2022/10/02 07:23:17;;;;;;;12.85;2.50;;;;;;;15.49;72.91;99417.72;5171703;28;20054;-69
2022/10/02 07:26:37;;;;;;;10.88;2.60;;;;;;;15.36;73.55;99406.66;5172562;28;20072;-69
2022/10/02 07:29:32;;;;;;;28.35;10.23;;;;;;;15.30;73.46;99396.66;5173920;28;20439;-67
2022/10/02 07:32:25;;;;;;;;;;;;;;;15.40;73.96;99399.19;5172891;28;20057;-68
2022/10/02 07:35:33;;;;;;;19.30;5.75;;;;;;;15.39;73.80;99392.97;5171727;28;19948;-70
2022/10/02 07:38:44;;;;;;;17.40;6.93;;;;;;;15.59;72.57;99384.66;5169827;28;20127;-69
2022/10/02 07:42:02;;;;;;;11.88;5.18;;;;;;;15.44;72.92;99395.19;5172977;28;20061;-68
2022/10/02 07:45:16;;;;;;;8.38;2.75;;;;;;;15.43;73.43;99397.03;5170993;28;20054;-74
2022/10/02 07:48:14;;;;;;;13.98;4.28;;;;;;;15.59;71.89;99406.88;5174512;28;20152;-71
2022/10/02 07:54:44;;;;;;;8.20;2.47;;;;;;;15.48;73.20;99404.53;5178430;28;20045;-71
2022/10/02 07:57:56;;;;;;;9.10;3.60;;;;;;;15.57;72.49;99406.22;5178183;28;20050;-67
2022/10/02 08:00:50;;;;;;;11.43;3.05;;;;;;;15.51;72.59;99402.38;5177839;28;20176;-70
2022/10/02 08:03:50;;;;;;;12.15;2.53;;;;;;;15.31;73.93;99392.16;5177860;28;20046;-70
2022/10/02 08:06:40;;;;;;;10.57;3.65;;;;;;;15.65;72.50;99400.03;5171860;28;20133;-70
2022/10/02 08:09:36;;;;;;;9.32;3.30;;;;;;;15.58;72.56;99394.50;5174857;28;20047;-70
2022/10/02 08:12:38;;;;;;;6.97;2.78;;;;;;;15.54;73.16;99387.84;5163610;28;20184;-68
2022/10/02 08:15:34;;;;;;;7.13;2.38;;;;;;;15.29;74.38;99389.63;5175926;28;20531;-70
2022/10/02 08:18:36;;;;;;;4.97;2.70;;;;;;;15.40;73.71;99369.81;5171748;28;20050;-69
2022/10/02 08:21:32;;;;;;;9.02;3.22;;;;;;;15.62;72.87;99379.81;5171197;28;20116;-69
2022/10/02 08:24:29;;;;;;;7.65;3.60;;;;;;;15.68;72.12;99379.19;5174831;28;20050;-70
2022/10/02 08:27:27;;;;;;;12.75;3.58;;;;;;;15.51;73.66;99377.47;5172477;28;20054;-69
2022/10/02 08:30:17;;;;;;;8.57;3.50;;;;;;;15.57;73.77;99359.94;5177102;28;20061;-69
2022/10/02 08:33:21;;;;;;;11.25;3.08;;;;;;;15.64;73.01;99367.13;5171919;28;20049;-69
2022/10/02 08:36:27;;;;;;;12.35;3.83;;;;;;;15.55;73.56;99376.13;5173603;28;20045;-70
2022/10/02 08:39:33;;;;;;;11.15;3.28;;;;;;;15.68;73.41;99355.13;5174686;28;20514;-71
2022/10/02 08:42:35;;;;;;;8.52;2.80;;;;;;;15.57;73.40;99359.94;5174718;28;20061;-70
2022/10/02 08:45:56;;;;;;;9.48;3.05;;;;;;;15.70;72.89;99360.31;5175285;28;20107;-68
2022/10/02 08:49:36;;;;;;;8.55;2.97;;;;;;;15.79;72.85;99335.22;5173028;28;20052;-70
2022/10/02 08:52:35;;;;;;;10.13;2.78;;;;;;;15.91;72.75;99363.28;5169845;28;20127;-73
2022/10/02 08:55:43;;;;;;;11.35;3.05;;;;;;;15.98;72.29;99344.72;5172870;28;20196;-69
2022/10/02 08:59:00;;;;;;;8.90;3.05;;;;;;;15.93;73.07;99347.09;5175511;28;20065;-69
2022/10/02 09:02:15;;;;;;;8.68;3.40;;;;;;;16.02;72.76;99346.06;5176811;28;20510;-69
2022/10/02 09:05:22;;;;;;;12.20;3.10;;;;;;;16.14;72.88;99366.09;5174777;28;20053;-69
2022/10/02 09:08:25;;;;;;;7.88;3.17;;;;;;;15.85;72.23;99366.63;5173933;28;20057;-70
2022/10/02 09:11:44;;;;;;;13.00;3.50;;;;;;;15.96;73.02;99382.34;5176967;28;20594;-68
2022/10/02 09:14:49;;;;;;;10.07;3.38;;;;;;;15.33;75.07;99385.66;5161215;28;20434;-69
2022/10/02 09:18:04;;;;;;;9.43;3.28;;;;;;;15.75;73.75;99382.03;5177863;28;20084;-71
2022/10/02 09:21:17;;;;;;;8.95;3.22;;;;;;;15.95;73.18;99374.47;5174274;28;20049;-70
2022/10/02 09:24:19;;;;;;;8.93;3.35;;;;;;;15.95;73.06;99374.47;5173677;28;20416;-70
2022/10/02 09:27:48;;;;;;;5.95;2.75;;;;;;;16.08;72.58;99369.44;5174470;28;20112;-71
2022/10/02 09:31:25;;;;;;;8.00;2.95;;;;;;;16.01;72.53;99367.63;5175626;28;20050;-69
2022/10/02 09:34:50;;;;;;;6.53;2.63;;;;;;;15.91;73.43;99351.75;5170441;28;20088;-71
2022/10/02 09:38:04;;;;;;;5.72;3.03;;;;;;;16.02;73.46;99359.44;5172932;28;20061;-69
2022/10/02 09:41:38;;;;;;;6.18;2.63;;;;;;;16.00;73.28;99371.31;5171901;28;20501;-69
2022/10/02 09:44:57;;;;;;;6.10;2.90;;;;;;;16.02;73.20;99366.63;5176259;28;20192;-71
2022/10/02 09:48:29;;;;;;;8.80;3.15;;;;;;;16.16;71.96;99364.09;5174273;28;20626;-70
2022/10/02 09:51:56;;;;;;;6.00;3.00;;;;;;;16.06;72.58;99354.56;5168383;28;20258;-71
2022/10/02 09:55:24;;;;;;;7.10;2.13;;;;;;;16.05;72.27;99343.03;5169717;28;20329;-71
2022/10/02 09:58:36;;;;;;;7.90;2.15;;;;;;;16.01;72.39;99346.25;5171751;28;20112;-71
2022/10/02 10:01:35;;;;;;;7.18;2.20;;;;;;;16.03;72.38;99369.13;5162148;28;20061;-70
2022/10/02 10:04:31;;;;;;;6.07;2.22;;;;;;;15.95;72.94;99385.19;5173520;28;20088;-70
2022/10/02 10:08:04;;;;;;;5.20;2.75;;;;;;;15.97;71.76;99380.50;5173170;28;20053;-71
2022/10/02 10:11:28;;;;;;;5.05;2.53;;;;;;;16.04;72.90;99370.81;5155810;28;20076;-69
2022/10/02 10:14:21;;;;;;;6.60;2.15;;;;;;;16.00;72.29;99363.28;5166580;28;20488;-68
2022/10/02 10:17:52;;;;;;;5.22;2.17;;;;;;;16.03;72.26;99353.09;5165577;28;20143;-69
2022/10/02 10:20:55;;;;;;;4.53;1.60;;;;;;;16.18;72.23;99347.88;5169204;28;20168;-73
2022/10/02 10:24:00;;;;;;;3.70;1.63;;;;;;;16.31;71.89;99342.81;5170416;28;20281;-71
2022/10/02 10:27:15;;;;;;;6.30;2.00;;;;;;;16.41;71.44;99354.16;5167980;28;20101;-73
2022/10/02 10:30:22;;;;;;;7.53;3.38;;;;;;;16.11;72.41;99374.47;5164054;28;20150;-70
2022/10/02 10:33:34;;;;;;;2.30;1.75;;;;;;;16.01;72.99;99381.00;5170958;28;20501;-69
2022/10/02 10:40:08;;;;;;;4.95;1.83;;;;;;;16.13;72.31;99376.97;5168949;28;20126;-73
2022/10/02 10:43:26;;;;;;;9.07;1.73;;;;;;;15.98;72.07;99364.28;5164617;28;20053;-70
2022/10/02 10:46:39;;;;;;;5.05;1.67;;;;;;;16.20;71.85;99372.63;5177877;28;20176;-71
2022/10/02 10:49:54;;;;;;;3.53;1.30;;;;;;;16.16;71.71;99364.09;5175971;28;20420;-69
2022/10/02 10:53:14;;;;;;;3.58;2.03;;;;;;;16.10;71.71;99374.66;5155878;28;20061;-71
2022/10/02 10:56:13;;;;;;;3.17;1.90;;;;;;;16.14;72.10;99378.66;5144485;28;20068;-68
2022/10/02 10:59:44;;;;;;;3.75;1.50;;;;;;;16.24;71.97;99391.84;5151168;28;20073;-70
2022/10/02 11:02:58;;;;;;;6.25;1.80;;;;;;;16.31;71.96;99372.25;5171601;28;20678;-71
2022/10/02 11:06:24;;;;;;;3.42;1.60;;;;;;;16.33;71.29;99383.63;5168732;28;20054;-71
2022/10/02 11:09:25;;;;;;;2.55;1.77;;;;;;;16.16;72.05;99380.16;5162216;28;20543;-70
2022/10/02 11:12:47;;;;;;;4.70;2.53;;;;;;;16.07;72.38;99391.03;5158150;28;20196;-71
2022/10/02 11:16:06;;;;;;;5.05;1.88;;;;;;;16.16;72.45;99403.41;5169881;28;20504;-71
2022/10/02 11:19:07;;;;;;;3.90;2.50;;;;;;;16.06;73.14;99414.28;5169612;28;20107;-71
2022/10/02 11:22:24;;;;;;;5.03;2.70;;;;;;;16.13;72.52;99398.38;5168445;28;20090;-71
2022/10/02 11:25:18;;;;;;;6.22;2.13;;;;;;;16.23;71.96;99393.69;5175031;28;20585;-71
2022/10/02 11:28:24;;;;;;;5.47;2.80;;;;;;;16.29;72.45;99395.69;5172243;28;20061;-72
2022/10/02 11:31:39;;;;;;;3.22;2.42;;;;;;;16.28;72.60;99388.63;5170177;28;20643;-70
2022/10/02 11:34:50;;;;;;;3.88;1.38;;;;;;;16.21;73.10;99371.59;5171216;28;20500;-71
2022/10/02 11:37:47;;;;;;;3.42;1.60;;;;;;;16.29;71.20;99382.31;5169163;28;20468;-70
2022/10/02 11:41:09;;;;;;;1.30;1.13;;;;;;;16.28;72.09;99379.78;5172551;28;20592;-71
2022/10/02 11:44:38;;;;;;;2.78;1.45;;;;;;;16.07;72.75;99374.97;5168494;28;20164;-68
2022/10/02 11:47:56;;;;;;;5.38;2.03;;;;;;;15.86;74.14;99381.69;5170637;28;20050;-70
2022/10/02 11:50:46;;;;;;;2.70;2.00;;;;;;;16.09;72.84;99383.66;5170366;28;20057;-70
2022/10/02 11:54:00;;;;;;;3.33;1.92;;;;;;;16.36;73.09;99385.97;5171242;28;20057;-70
2022/10/02 11:57:15;;;;;;;4.10;1.80;;;;;;;16.32;73.84;99383.78;5169034;28;20084;-69
2022/10/02 12:00:33;;;;;;;2.15;1.70;;;;;;;16.49;72.94;99388.09;5171618;28;20092;-68
2022/10/02 12:03:43;;;;;;;2.88;1.70;;;;;;;16.66;72.26;99394.22;5173182;28;20053;-70
2022/10/02 12:06:59;;;;;;;2.42;1.67;;;;;;;16.56;71.71;99393.59;5156820;28;20065;-67
2022/10/02 12:10:14;;;;;;;1.60;1.35;;;;;;;16.55;72.50;99376.69;5176942;28;20057;-71
2022/10/02 12:13:25;;;;;;;1.38;1.00;;;;;;;16.63;71.30;99373.16;5175774;28;20143;-70
2022/10/02 12:16:30;;;;;;;1.30;1.20;;;;;;;16.69;72.16;99369.78;5177344;28;20080;-70
2022/10/02 12:27:08;;;;;;;2.20;1.33;;;;;;;16.73;71.47;99356.88;5148563;28;20651;-71
2022/10/02 12:29:59;;;;;;;;;;;;;;;16.79;71.37;99373.13;5156979;28;20090;-69
2022/10/02 12:33:07;;;;;;;3.13;1.38;;;;;;;16.50;71.21;99372.88;5173151;28;20405;-71
2022/10/02 12:36:06;;;;;;;2.45;1.30;;;;;;;16.69;71.60;99377.81;5173646;28;20058;-68
2022/10/02 12:39:11;;;;;;;1.10;0.90;;;;;;;16.66;71.02;99380.84;5167846;28;20444;-66
2022/10/02 12:42:13;;;;;;;1.95;0.98;;;;;;;16.51;71.50;99382.56;5172735;28;20054;-69
2022/10/02 12:45:30;;;;;;;1.55;0.88;;;;;;;16.50;71.88;99388.94;5170980;28;20100;-69
2022/10/02 12:49:02;;;;;;;1.48;1.20;;;;;;;16.55;72.50;99397.25;5167967;28;20477;-69
2022/10/02 12:52:11;;;;;;;1.35;1.10;;;;;;;16.31;73.28;99390.16;5160506;28;20053;-69
2022/10/02 12:55:26;;;;;;;0.80;0.80;;;;;;;16.02;72.77;99385.34;5170141;28;20046;-68
2022/10/02 12:58:22;;;;;;;;;;;;;;;16.30;72.79;99408.03;5173382;28;20057;-70
2022/10/02 13:01:43;;;;;;;1.83;1.35;;;;;;;16.16;73.71;99400.72;5169592;28;20371;-69
2022/10/02 13:05:12;;;;;;;1.48;1.13;;;;;;;16.12;74.21;99404.72;5173169;28;20046;-69
2022/10/02 13:08:08;;;;;;;1.02;0.88;;;;;;;15.97;74.37;99400.06;5172938;28;20046;-71
2022/10/02 13:11:20;;;;;;;1.67;1.42;;;;;;;15.81;73.86;99413.44;5168761;28;20188;-67
2022/10/02 13:14:26;;;;;;;1.30;0.95;;;;;;;15.87;74.79;99418.13;5174486;28;20042;-70
2022/10/02 13:17:28;;;;;;;5.15;1.10;;;;;;;16.11;72.66;99405.72;5171214;28;20057;-71
2022/10/02 13:20:42;;;;;;;2.78;0.80;;;;;;;16.32;72.02;99402.50;5168171;28;20048;-70
2022/10/02 13:23:38;;;;;;;4.15;0.65;;;;;;;16.00;73.43;99395.41;5151214;28;20416;-69
2022/10/02 13:26:53;;;;;;;1.00;0.60;;;;;;;15.97;72.11;99394.72;5170897;28;20050;-71
2022/10/02 13:30:12;;;;;;;0.35;0.30;;;;;;;16.04;72.36;99386.03;5169842;28;20188;-70
2022/10/02 13:33:21;;;;;;;3.38;0.73;;;;;;;16.13;72.92;99391.19;5168978;28;20069;-71
2022/10/02 13:36:29;;;;;;;2.58;0.63;;;;;;;16.20;72.36;99392.19;5172944;28;20050;-71
2022/10/02 13:39:49;;;;;;;2.95;1.38;;;;;;;16.21;72.57;99388.47;5147101;28;20058;-70
2022/10/02 13:43:00;;;;;;;8.43;3.42;;;;;;;16.18;71.83;99396.84;5163148;28;20058;-71
2022/10/02 13:46:02;;;;;;;9.32;4.75;;;;;;;16.37;72.69;99387.63;5175007;28;20049;-70
2022/10/02 13:49:19;;;;;;;8.25;3.03;;;;;;;16.19;72.63;99386.97;5178559;28;20061;-73
2022/10/02 13:52:29;;;;;;;3.45;1.80;;;;;;;16.38;71.85;99397.31;5160232;28;20108;-72
2022/10/02 13:55:27;;;;;;;5.13;2.15;;;;;;;16.30;72.00;99410.72;5173678;28;20046;-73
2022/10/02 13:58:42;;;;;;;6.05;3.28;;;;;;;15.86;74.35;99408.44;5164288;28;20549;-71
2022/10/02 14:02:00;;;;;;;;;;;;;;;15.91;72.70;99416.78;5169714;28;20053;-71
2022/10/02 14:05:03;;;;;;;5.28;3.03;;;;;;;15.82;72.67;99412.44;5168254;28;20292;-73
2022/10/02 14:08:09;;;;;;;9.50;4.20;;;;;;;16.28;72.12;99420.75;5172327;28;20052;-69
2022/10/02 14:11:07;;;;;;;7.63;2.80;;;;;;;16.11;72.84;99403.06;5168901;28;20081;-70
2022/10/02 14:14:21;;;;;;;4.03;1.25;;;;;;;16.09;72.62;99402.38;5167584;28;20060;-73
2022/10/02 14:17:14;;;;;;;5.85;1.15;;;;;;;15.92;72.09;99369.47;5168639;28;20062;-73
2022/10/02 14:20:25;;;;;;;4.10;2.30;;;;;;;16.03;73.63;99403.91;5173546;28;20050;-70
2022/10/02 14:23:15;;;;;;;5.00;3.22;;;;;;;15.96;72.69;99377.00;5167258;28;20069;-70
2022/10/02 14:26:41;;;;;;;8.15;3.75;;;;;;;16.19;72.69;99370.94;5175991;28;20152;-71
2022/10/02 14:29:49;;;;;;;8.57;4.00;;;;;;;16.17;71.61;99381.81;5164399;28;20211;-70
2022/10/02 14:32:51;;;;;;;7.30;3.85;;;;;;;16.19;72.92;99376.28;5167994;28;20140;-69
2022/10/02 14:36:01;;;;;;;4.93;2.20;;;;;;;16.32;72.25;99381.94;5164636;28;20058;-68
2022/10/02 14:39:14;;;;;;;3.65;2.20;;;;;;;16.33;71.81;99380.94;5169461;28;20579;-68
2022/10/02 14:42:41;;;;;;;2.75;1.75;;;;;;;16.35;71.57;99381.59;5175559;28;20128;-69
2022/10/02 14:45:50;;;;;;;3.20;2.20;;;;;;;16.33;72.63;99382.78;5163535;28;20503;-69
2022/10/02 14:49:06;;;;;;;2.60;1.95;;;;;;;16.52;72.09;99379.69;5172997;28;20060;-70
2022/10/02 14:52:27;;;;;;;7.47;3.97;;;;;;;16.64;71.07;99359.59;5173375;28;20436;-69